sensor_id;sensor_type;location;lat;lon;timestamp;temperature;humidity
23769;DHT22;12064;50.890;5.424;2023-07-31T00:05:23;22.20;97.60
23769;DHT22;12064;50.890;5.424;2023-07-31T00:14:16;22.20;97.70
23769;DHT22;12064;50.890;5.424;2023-07-31T00:23:07;22.10;97.80
23769;DHT22;12064;50.890;5.424;2023-07-31T00:31:57;22.10;97.90
23769;DHT22;12064;50.890;5.424;2023-07-31T00:40:48;22.00;98.00
23769;DHT22;12064;50.890;5.424;2023-07-31T00:49:39;22.00;98.00
23769;DHT22;12064;50.890;5.424;2023-07-31T00:58:31;22.10;98.00
23769;DHT22;12064;50.890;5.424;2023-07-31T01:07:37;22.00;98.50
23769;DHT22;12064;50.890;5.424;2023-07-31T01:16:30;22.00;98.40
23769;DHT22;12064;50.890;5.424;2023-07-31T01:34:24;22.00;98.30
23769;DHT22;12064;50.890;5.424;2023-07-31T01:43:19;22.00;98.40
23769;DHT22;12064;50.890;5.424;2023-07-31T01:52:10;22.00;98.40
23769;DHT22;12064;50.890;5.424;2023-07-31T02:01:00;22.00;98.50
23769;DHT22;12064;50.890;5.424;2023-07-31T02:09:51;21.90;98.60
23769;DHT22;12064;50.890;5.424;2023-07-31T02:18:42;21.90;98.60
23769;DHT22;12064;50.890;5.424;2023-07-31T02:27:35;21.90;98.60
23769;DHT22;12064;50.890;5.424;2023-07-31T02:36:28;21.90;98.70
23769;DHT22;12064;50.890;5.424;2023-07-31T02:45:21;21.90;98.70
23769;DHT22;12064;50.890;5.424;2023-07-31T02:54:14;21.90;98.80
23769;DHT22;12064;50.890;5.424;2023-07-31T03:03:07;21.90;98.80
23769;DHT22;12064;50.890;5.424;2023-07-31T03:11:58;21.90;98.80
23769;DHT22;12064;50.890;5.424;2023-07-31T03:20:49;21.90;98.80
23769;DHT22;12064;50.890;5.424;2023-07-31T03:29:39;21.90;98.90
23769;DHT22;12064;50.890;5.424;2023-07-31T03:38:30;21.90;98.90
23769;DHT22;12064;50.890;5.424;2023-07-31T03:47:23;21.80;98.90
23769;DHT22;12064;50.890;5.424;2023-07-31T03:56:14;21.80;99.00
23769;DHT22;12064;50.890;5.424;2023-07-31T04:05:04;21.80;99.00
23769;DHT22;12064;50.890;5.424;2023-07-31T04:13:58;21.80;99.00
23769;DHT22;12064;50.890;5.424;2023-07-31T04:22:49;21.80;99.00
23769;DHT22;12064;50.890;5.424;2023-07-31T04:31:43;21.80;99.00
23769;DHT22;12064;50.890;5.424;2023-07-31T04:40:33;21.80;99.10
23769;DHT22;12064;50.890;5.424;2023-07-31T04:49:27;21.80;99.00
23769;DHT22;12064;50.890;5.424;2023-07-31T04:58:20;21.80;99.00
23769;DHT22;12064;50.890;5.424;2023-07-31T05:07:13;21.80;98.90
23769;DHT22;12064;50.890;5.424;2023-07-31T05:16:03;21.70;98.90
23769;DHT22;12064;50.890;5.424;2023-07-31T05:24:57;21.70;98.90
23769;DHT22;12064;50.890;5.424;2023-07-31T05:33:48;21.80;98.90
23769;DHT22;12064;50.890;5.424;2023-07-31T05:42:40;21.70;99.30
23769;DHT22;12064;50.890;5.424;2023-07-31T05:51:31;21.70;98.90
23769;DHT22;12064;50.890;5.424;2023-07-31T06:00:24;21.70;98.90
23769;DHT22;12064;50.890;5.424;2023-07-31T06:09:15;21.70;98.90
23769;DHT22;12064;50.890;5.424;2023-07-31T06:18:05;21.70;99.00
23769;DHT22;12064;50.890;5.424;2023-07-31T06:26:58;21.70;99.00
23769;DHT22;12064;50.890;5.424;2023-07-31T06:35:49;21.70;99.00
23769;DHT22;12064;50.890;5.424;2023-07-31T06:44:40;21.70;98.90
23769;DHT22;12064;50.890;5.424;2023-07-31T06:53:33;21.70;98.90
23769;DHT22;12064;50.890;5.424;2023-07-31T07:02:26;21.70;98.90
23769;DHT22;12064;50.890;5.424;2023-07-31T07:11:17;21.70;98.90
23769;DHT22;12064;50.890;5.424;2023-07-31T07:20:08;21.70;98.90
23769;DHT22;12064;50.890;5.424;2023-07-31T07:28:59;21.70;98.90
23769;DHT22;12064;50.890;5.424;2023-07-31T07:37:52;21.70;98.90
23769;DHT22;12064;50.890;5.424;2023-07-31T07:46:43;21.70;99.90
23769;DHT22;12064;50.890;5.424;2023-07-31T07:55:35;21.60;99.90
23769;DHT22;12064;50.890;5.424;2023-07-31T08:04:26;21.60;99.90
23769;DHT22;12064;50.890;5.424;2023-07-31T08:13:19;21.50;99.90
23769;DHT22;12064;50.890;5.424;2023-07-31T08:22:09;21.50;99.90
23769;DHT22;12064;50.890;5.424;2023-07-31T08:31:00;21.50;99.90
23769;DHT22;12064;50.890;5.424;2023-07-31T08:39:51;21.50;99.90
23769;DHT22;12064;50.890;5.424;2023-07-31T08:48:42;21.60;99.90
23769;DHT22;12064;50.890;5.424;2023-07-31T08:57:39;21.60;99.90
23769;DHT22;12064;50.890;5.424;2023-07-31T09:06:30;21.60;99.90
23769;DHT22;12064;50.890;5.424;2023-07-31T09:15:22;21.60;99.90
23769;DHT22;12064;50.890;5.424;2023-07-31T09:24:25;21.50;99.90
23769;DHT22;12064;50.890;5.424;2023-07-31T09:33:17;21.50;99.90
23769;DHT22;12064;50.890;5.424;2023-07-31T09:42:11;21.60;99.90
23769;DHT22;12064;50.890;5.424;2023-07-31T09:51:04;21.60;99.90
23769;DHT22;12064;50.890;5.424;2023-07-31T09:59:55;21.60;99.90
23769;DHT22;12064;50.890;5.424;2023-07-31T10:08:47;21.60;99.90
23769;DHT22;12064;50.890;5.424;2023-07-31T10:17:41;21.60;99.90
23769;DHT22;12064;50.890;5.424;2023-07-31T10:26:32;21.60;99.90
23769;DHT22;12064;50.890;5.424;2023-07-31T10:35:27;21.60;99.90
23769;DHT22;12064;50.890;5.424;2023-07-31T10:44:20;21.60;99.90
23769;DHT22;12064;50.890;5.424;2023-07-31T10:53:25;21.70;99.90
23769;DHT22;12064;50.890;5.424;2023-07-31T11:02:26;21.70;99.90
23769;DHT22;12064;50.890;5.424;2023-07-31T11:11:20;21.70;99.90
23769;DHT22;12064;50.890;5.424;2023-07-31T11:20:13;21.70;99.90
23769;DHT22;12064;50.890;5.424;2023-07-31T11:29:11;21.70;99.90
23769;DHT22;12064;50.890;5.424;2023-07-31T11:38:04;21.70;99.90
23769;DHT22;12064;50.890;5.424;2023-07-31T11:47:01;21.80;99.90
23769;DHT22;12064;50.890;5.424;2023-07-31T11:55:55;21.80;99.90
23769;DHT22;12064;50.890;5.424;2023-07-31T12:04:48;21.80;99.90
23769;DHT22;12064;50.890;5.424;2023-07-31T12:13:41;21.80;99.90
23769;DHT22;12064;50.890;5.424;2023-07-31T12:22:32;21.80;99.90
23769;DHT22;12064;50.890;5.424;2023-07-31T12:31:23;21.80;99.90
23769;DHT22;12064;50.890;5.424;2023-07-31T12:40:16;21.80;99.90
23769;DHT22;12064;50.890;5.424;2023-07-31T12:49:06;21.90;99.90
23769;DHT22;12064;50.890;5.424;2023-07-31T12:57:57;21.90;99.90
23769;DHT22;12064;50.890;5.424;2023-07-31T13:06:50;21.90;99.90
23769;DHT22;12064;50.890;5.424;2023-07-31T13:15:44;21.90;99.90
23769;DHT22;12064;50.890;5.424;2023-07-31T13:24:35;21.90;99.90
23769;DHT22;12064;50.890;5.424;2023-07-31T13:33:29;21.90;99.90
23769;DHT22;12064;50.890;5.424;2023-07-31T13:42:19;21.90;99.90
23769;DHT22;12064;50.890;5.424;2023-07-31T13:51:12;21.90;99.90
23769;DHT22;12064;50.890;5.424;2023-07-31T14:00:03;21.90;99.90
23769;DHT22;12064;50.890;5.424;2023-07-31T14:08:54;21.90;99.90
23769;DHT22;12064;50.890;5.424;2023-07-31T14:17:48;21.90;99.90
23769;DHT22;12064;50.890;5.424;2023-07-31T14:26:38;22.00;99.90
23769;DHT22;12064;50.890;5.424;2023-07-31T14:35:31;22.00;99.90
23769;DHT22;12064;50.890;5.424;2023-07-31T14:44:25;22.00;99.90
23769;DHT22;12064;50.890;5.424;2023-07-31T14:53:18;22.00;99.90
23769;DHT22;12064;50.890;5.424;2023-07-31T15:02:09;22.00;99.90
23769;DHT22;12064;50.890;5.424;2023-07-31T15:11:00;22.00;99.90
23769;DHT22;12064;50.890;5.424;2023-07-31T15:19:50;22.00;99.90
23769;DHT22;12064;50.890;5.424;2023-07-31T15:28:41;22.00;99.90
23769;DHT22;12064;50.890;5.424;2023-07-31T15:37:32;22.00;99.90
23769;DHT22;12064;50.890;5.424;2023-07-31T15:46:25;22.00;99.90
23769;DHT22;12064;50.890;5.424;2023-07-31T15:55:16;22.00;99.90
23769;DHT22;12064;50.890;5.424;2023-07-31T16:04:09;22.00;99.90
23769;DHT22;12064;50.890;5.424;2023-07-31T16:13:02;22.00;99.90
23769;DHT22;12064;50.890;5.424;2023-07-31T16:21:56;22.00;99.90
23769;DHT22;12064;50.890;5.424;2023-07-31T16:30:50;21.90;99.90
23769;DHT22;12064;50.890;5.424;2023-07-31T16:39:41;21.90;99.90
23769;DHT22;12064;50.890;5.424;2023-07-31T16:48:33;21.90;99.90
23769;DHT22;12064;50.890;5.424;2023-07-31T16:57:27;21.90;99.90
23769;DHT22;12064;50.890;5.424;2023-07-31T17:06:20;21.90;99.90
23769;DHT22;12064;50.890;5.424;2023-07-31T17:15:13;21.90;99.90
23769;DHT22;12064;50.890;5.424;2023-07-31T17:24:07;21.80;99.90
23769;DHT22;12064;50.890;5.424;2023-07-31T17:33:00;21.80;99.90
23769;DHT22;12064;50.890;5.424;2023-07-31T17:41:50;21.90;99.90
23769;DHT22;12064;50.890;5.424;2023-07-31T17:50:41;21.80;99.90
23769;DHT22;12064;50.890;5.424;2023-07-31T17:59:32;21.80;99.90
23769;DHT22;12064;50.890;5.424;2023-07-31T18:08:22;21.80;99.90
23769;DHT22;12064;50.890;5.424;2023-07-31T18:17:13;21.80;99.90
23769;DHT22;12064;50.890;5.424;2023-07-31T18:26:04;21.80;99.90
23769;DHT22;12064;50.890;5.424;2023-07-31T18:34:54;21.80;99.90
23769;DHT22;12064;50.890;5.424;2023-07-31T18:43:48;21.70;99.90
23769;DHT22;12064;50.890;5.424;2023-07-31T18:52:44;21.70;99.90
23769;DHT22;12064;50.890;5.424;2023-07-31T19:01:38;21.70;99.90
23769;DHT22;12064;50.890;5.424;2023-07-31T19:10:35;21.70;99.90
23769;DHT22;12064;50.890;5.424;2023-07-31T19:19:25;21.70;99.90
23769;DHT22;12064;50.890;5.424;2023-07-31T19:28:19;21.70;99.90
23769;DHT22;12064;50.890;5.424;2023-07-31T19:37:11;21.70;99.90
23769;DHT22;12064;50.890;5.424;2023-07-31T19:46:01;21.70;99.90
23769;DHT22;12064;50.890;5.424;2023-07-31T19:54:55;21.60;99.90
23769;DHT22;12064;50.890;5.424;2023-07-31T20:03:45;21.60;99.90
23769;DHT22;12064;50.890;5.424;2023-07-31T20:12:40;21.60;99.90
23769;DHT22;12064;50.890;5.424;2023-07-31T20:21:30;21.60;99.90
23769;DHT22;12064;50.890;5.424;2023-07-31T20:30:21;21.60;99.90
23769;DHT22;12064;50.890;5.424;2023-07-31T20:39:12;21.60;99.90
23769;DHT22;12064;50.890;5.424;2023-07-31T20:48:02;21.60;99.90
23769;DHT22;12064;50.890;5.424;2023-07-31T20:56:53;21.60;99.90
23769;DHT22;12064;50.890;5.424;2023-07-31T21:05:51;21.60;99.90
23769;DHT22;12064;50.890;5.424;2023-07-31T21:14:47;21.60;99.90
23769;DHT22;12064;50.890;5.424;2023-07-31T21:23:38;21.60;99.90
23769;DHT22;12064;50.890;5.424;2023-07-31T21:32:31;21.60;99.90
23769;DHT22;12064;50.890;5.424;2023-07-31T21:41:22;21.60;99.90
23769;DHT22;12064;50.890;5.424;2023-07-31T21:50:12;21.50;99.90
23769;DHT22;12064;50.890;5.424;2023-07-31T21:59:03;21.50;99.90
23769;DHT22;12064;50.890;5.424;2023-07-31T22:08:00;21.50;99.90
23769;DHT22;12064;50.890;5.424;2023-07-31T22:16:54;21.50;99.90
23769;DHT22;12064;50.890;5.424;2023-07-31T22:25:45;21.50;99.90
23769;DHT22;12064;50.890;5.424;2023-07-31T22:34:38;21.50;99.90
23769;DHT22;12064;50.890;5.424;2023-07-31T22:43:33;21.50;99.90
23769;DHT22;12064;50.890;5.424;2023-07-31T22:52:24;21.50;99.90
23769;DHT22;12064;50.890;5.424;2023-07-31T23:01:17;21.50;99.90
23769;DHT22;12064;50.890;5.424;2023-07-31T23:10:12;21.50;99.90
23769;DHT22;12064;50.890;5.424;2023-07-31T23:19:05;21.50;99.90
23769;DHT22;12064;50.890;5.424;2023-07-31T23:27:58;21.50;99.90
23769;DHT22;12064;50.890;5.424;2023-07-31T23:36:51;21.50;99.90
23769;DHT22;12064;50.890;5.424;2023-07-31T23:45:42;21.40;99.90
23769;DHT22;12064;50.890;5.424;2023-07-31T23:54:33;21.50;99.90
